sensor_id;sensor_type;location;lat;lon;timestamp;temperature;humidity
76345;DHT22;65160;50.504;3.666;2023-02-04T00:00:52;9.55;89.03
76345;DHT22;65160;50.504;3.666;2023-02-04T00:03:18;9.57;89.06
76345;DHT22;65160;50.504;3.666;2023-02-04T00:05:43;9.65;88.71
76345;DHT22;65160;50.504;3.666;2023-02-04T00:08:09;9.74;88.41
76345;DHT22;65160;50.504;3.666;2023-02-04T00:10:36;9.74;88.33
76345;DHT22;65160;50.504;3.666;2023-02-04T00:13:02;9.63;88.52
76345;DHT22;65160;50.504;3.666;2023-02-04T00:15:28;9.63;88.43
76345;DHT22;65160;50.504;3.666;2023-02-04T00:17:54;9.65;88.42
76345;DHT22;65160;50.504;3.666;2023-02-04T00:20:19;9.63;88.51
76345;DHT22;65160;50.504;3.666;2023-02-04T00:22:45;9.58;88.70
76345;DHT22;65160;50.504;3.666;2023-02-04T00:25:11;9.58;88.72
76345;DHT22;65160;50.504;3.666;2023-02-04T00:27:37;9.63;88.49
76345;DHT22;65160;50.504;3.666;2023-02-04T00:30:03;9.59;88.72
76345;DHT22;65160;50.504;3.666;2023-02-04T00:32:29;9.59;88.79
76345;DHT22;65160;50.504;3.666;2023-02-04T00:34:54;9.66;88.47
76345;DHT22;65160;50.504;3.666;2023-02-04T00:37:20;9.65;88.52
76345;DHT22;65160;50.504;3.666;2023-02-04T00:39:46;9.58;88.69
76345;DHT22;65160;50.504;3.666;2023-02-04T00:42:11;9.59;88.71
76345;DHT22;65160;50.504;3.666;2023-02-04T00:44:37;9.58;88.70
76345;DHT22;65160;50.504;3.666;2023-02-04T00:47:03;9.59;88.69
76345;DHT22;65160;50.504;3.666;2023-02-04T00:49:29;9.59;88.56
76345;DHT22;65160;50.504;3.666;2023-02-04T00:51:54;9.62;88.45
76345;DHT22;65160;50.504;3.666;2023-02-04T00:54:19;9.61;88.41
76345;DHT22;65160;50.504;3.666;2023-02-04T00:56:45;9.66;88.47
76345;DHT22;65160;50.504;3.666;2023-02-04T00:59:11;9.69;88.16
76345;DHT22;65160;50.504;3.666;2023-02-04T01:01:37;9.68;88.18
76345;DHT22;65160;50.504;3.666;2023-02-04T01:04:02;9.71;88.09
76345;DHT22;65160;50.504;3.666;2023-02-04T01:06:28;9.71;87.91
76345;DHT22;65160;50.504;3.666;2023-02-04T01:08:53;9.68;88.00
76345;DHT22;65160;50.504;3.666;2023-02-04T01:11:19;9.72;87.97
76345;DHT22;65160;50.504;3.666;2023-02-04T01:13:44;9.78;87.72
76345;DHT22;65160;50.504;3.666;2023-02-04T01:16:10;9.71;87.94
76345;DHT22;65160;50.504;3.666;2023-02-04T01:18:36;9.72;88.06
76345;DHT22;65160;50.504;3.666;2023-02-04T01:21:02;9.71;88.06
76345;DHT22;65160;50.504;3.666;2023-02-04T01:23:27;9.68;88.16
76345;DHT22;65160;50.504;3.666;2023-02-04T01:25:53;9.69;88.07
76345;DHT22;65160;50.504;3.666;2023-02-04T01:28:18;9.66;88.13
76345;DHT22;65160;50.504;3.666;2023-02-04T01:30:44;9.68;88.00
76345;DHT22;65160;50.504;3.666;2023-02-04T01:33:09;9.71;88.05
76345;DHT22;65160;50.504;3.666;2023-02-04T01:35:35;9.68;87.96
76345;DHT22;65160;50.504;3.666;2023-02-04T01:38:00;9.62;88.09
76345;DHT22;65160;50.504;3.666;2023-02-04T01:40:26;9.61;88.37
76345;DHT22;65160;50.504;3.666;2023-02-04T01:42:51;9.58;88.34
76345;DHT22;65160;50.504;3.666;2023-02-04T01:45:17;9.63;88.39
76345;DHT22;65160;50.504;3.666;2023-02-04T01:47:44;9.66;88.00
76345;DHT22;65160;50.504;3.666;2023-02-04T01:50:12;9.63;88.18
76345;DHT22;65160;50.504;3.666;2023-02-04T01:52:39;9.68;88.08
76345;DHT22;65160;50.504;3.666;2023-02-04T01:55:19;9.71;87.92
76345;DHT22;65160;50.504;3.666;2023-02-04T01:57:46;9.68;87.93
76345;DHT22;65160;50.504;3.666;2023-02-04T02:00:16;9.61;88.16
76345;DHT22;65160;50.504;3.666;2023-02-04T02:02:43;9.69;88.10
76345;DHT22;65160;50.504;3.666;2023-02-04T02:05:16;9.69;87.69
76345;DHT22;65160;50.504;3.666;2023-02-04T02:07:42;9.69;87.71
76345;DHT22;65160;50.504;3.666;2023-02-04T02:10:10;9.75;87.65
76345;DHT22;65160;50.504;3.666;2023-02-04T02:12:36;9.74;87.78
76345;DHT22;65160;50.504;3.666;2023-02-04T02:15:03;9.68;87.86
76345;DHT22;65160;50.504;3.666;2023-02-04T02:17:28;9.71;87.90
76345;DHT22;65160;50.504;3.666;2023-02-04T02:19:54;9.72;87.77
76345;DHT22;65160;50.504;3.666;2023-02-04T02:22:29;9.72;87.68
76345;DHT22;65160;50.504;3.666;2023-02-04T02:24:56;9.71;87.65
76345;DHT22;65160;50.504;3.666;2023-02-04T02:27:22;9.69;87.66
76345;DHT22;65160;50.504;3.666;2023-02-04T02:29:48;9.65;87.82
76345;DHT22;65160;50.504;3.666;2023-02-04T02:32:14;9.61;87.98
76345;DHT22;65160;50.504;3.666;2023-02-04T02:34:41;9.59;88.12
76345;DHT22;65160;50.504;3.666;2023-02-04T02:37:07;9.62;88.10
76345;DHT22;65160;50.504;3.666;2023-02-04T02:39:37;9.59;88.22
76345;DHT22;65160;50.504;3.666;2023-02-04T02:42:03;9.61;88.16
76345;DHT22;65160;50.504;3.666;2023-02-04T02:44:30;9.61;88.38
76345;DHT22;65160;50.504;3.666;2023-02-04T02:46:56;9.55;88.80
76345;DHT22;65160;50.504;3.666;2023-02-04T02:49:22;9.57;89.12
76345;DHT22;65160;50.504;3.666;2023-02-04T02:51:48;9.58;89.40
76345;DHT22;65160;50.504;3.666;2023-02-04T02:54:31;9.47;89.97
76345;DHT22;65160;50.504;3.666;2023-02-04T02:56:58;9.37;90.64
76345;DHT22;65160;50.504;3.666;2023-02-04T02:59:25;9.28;91.29
76345;DHT22;65160;50.504;3.666;2023-02-04T03:01:59;9.28;91.66
76345;DHT22;65160;50.504;3.666;2023-02-04T03:04:28;9.21;92.14
76345;DHT22;65160;50.504;3.666;2023-02-04T03:06:55;9.17;92.43
76345;DHT22;65160;50.504;3.666;2023-02-04T03:09:22;9.14;92.71
76345;DHT22;65160;50.504;3.666;2023-02-04T03:11:49;9.13;93.12
76345;DHT22;65160;50.504;3.666;2023-02-04T03:14:15;9.09;93.36
76345;DHT22;65160;50.504;3.666;2023-02-04T03:16:41;9.10;93.50
76345;DHT22;65160;50.504;3.666;2023-02-04T03:19:08;9.11;93.64
76345;DHT22;65160;50.504;3.666;2023-02-04T03:21:34;9.04;93.76
76345;DHT22;65160;50.504;3.666;2023-02-04T03:24:00;8.99;94.07
76345;DHT22;65160;50.504;3.666;2023-02-04T03:26:26;9.02;94.14
76345;DHT22;65160;50.504;3.666;2023-02-04T03:28:54;9.03;94.18
76345;DHT22;65160;50.504;3.666;2023-02-04T03:31:20;9.03;94.16
76345;DHT22;65160;50.504;3.666;2023-02-04T03:33:45;9.02;94.27
76345;DHT22;65160;50.504;3.666;2023-02-04T03:36:11;9.02;94.30
76345;DHT22;65160;50.504;3.666;2023-02-04T03:38:37;9.00;94.39
76345;DHT22;65160;50.504;3.666;2023-02-04T03:41:02;9.00;94.40
76345;DHT22;65160;50.504;3.666;2023-02-04T03:43:28;8.97;94.52
76345;DHT22;65160;50.504;3.666;2023-02-04T03:45:53;9.00;94.54
76345;DHT22;65160;50.504;3.666;2023-02-04T03:48:19;8.94;94.52
76345;DHT22;65160;50.504;3.666;2023-02-04T03:50:45;8.94;94.64
76345;DHT22;65160;50.504;3.666;2023-02-04T03:53:10;8.93;94.73
76345;DHT22;65160;50.504;3.666;2023-02-04T03:55:36;8.90;94.90
76345;DHT22;65160;50.504;3.666;2023-02-04T03:58:02;8.90;94.95
76345;DHT22;65160;50.504;3.666;2023-02-04T04:00:28;8.86;95.08
76345;DHT22;65160;50.504;3.666;2023-02-04T04:02:53;8.84;95.18
76345;DHT22;65160;50.504;3.666;2023-02-04T04:05:19;8.84;95.19
76345;DHT22;65160;50.504;3.666;2023-02-04T04:07:44;8.86;95.29
76345;DHT22;65160;50.504;3.666;2023-02-04T04:10:10;8.89;95.21
76345;DHT22;65160;50.504;3.666;2023-02-04T04:12:36;8.89;95.28
76345;DHT22;65160;50.504;3.666;2023-02-04T04:15:01;8.89;95.23
76345;DHT22;65160;50.504;3.666;2023-02-04T04:17:27;8.87;95.26
76345;DHT22;65160;50.504;3.666;2023-02-04T04:19:52;8.89;95.23
76345;DHT22;65160;50.504;3.666;2023-02-04T04:22:18;8.86;95.27
76345;DHT22;65160;50.504;3.666;2023-02-04T04:24:43;8.80;95.30
76345;DHT22;65160;50.504;3.666;2023-02-04T04:27:09;8.80;95.37
76345;DHT22;65160;50.504;3.666;2023-02-04T04:29:35;8.87;95.37
76345;DHT22;65160;50.504;3.666;2023-02-04T04:32:00;8.84;95.41
76345;DHT22;65160;50.504;3.666;2023-02-04T04:34:26;8.84;95.40
76345;DHT22;65160;50.504;3.666;2023-02-04T04:36:51;8.86;95.40
76345;DHT22;65160;50.504;3.666;2023-02-04T04:39:17;8.84;95.29
76345;DHT22;65160;50.504;3.666;2023-02-04T04:41:42;8.84;95.30
76345;DHT22;65160;50.504;3.666;2023-02-04T04:44:08;8.83;95.33
76345;DHT22;65160;50.504;3.666;2023-02-04T04:46:33;8.84;95.30
76345;DHT22;65160;50.504;3.666;2023-02-04T04:48:59;8.84;95.28
76345;DHT22;65160;50.504;3.666;2023-02-04T04:51:24;8.82;95.35
76345;DHT22;65160;50.504;3.666;2023-02-04T04:53:50;8.86;95.38
76345;DHT22;65160;50.504;3.666;2023-02-04T04:56:15;8.86;95.35
76345;DHT22;65160;50.504;3.666;2023-02-04T04:58:41;8.87;95.34
76345;DHT22;65160;50.504;3.666;2023-02-04T05:01:06;8.84;95.22
76345;DHT22;65160;50.504;3.666;2023-02-04T05:03:32;8.93;95.26
76345;DHT22;65160;50.504;3.666;2023-02-04T05:05:57;8.92;95.12
76345;DHT22;65160;50.504;3.666;2023-02-04T05:08:23;8.92;95.03
76345;DHT22;65160;50.504;3.666;2023-02-04T05:10:48;8.94;94.94
76345;DHT22;65160;50.504;3.666;2023-02-04T05:13:14;8.96;94.90
76345;DHT22;65160;50.504;3.666;2023-02-04T05:15:40;8.96;94.89
76345;DHT22;65160;50.504;3.666;2023-02-04T05:18:06;8.99;94.78
76345;DHT22;65160;50.504;3.666;2023-02-04T05:20:32;8.96;94.76
76345;DHT22;65160;50.504;3.666;2023-02-04T05:22:57;8.97;94.72
76345;DHT22;65160;50.504;3.666;2023-02-04T05:25:25;8.96;94.78
76345;DHT22;65160;50.504;3.666;2023-02-04T05:27:51;8.97;94.80
76345;DHT22;65160;50.504;3.666;2023-02-04T05:30:17;8.97;94.81
76345;DHT22;65160;50.504;3.666;2023-02-04T05:32:42;8.94;94.79
76345;DHT22;65160;50.504;3.666;2023-02-04T05:35:08;8.94;94.84
76345;DHT22;65160;50.504;3.666;2023-02-04T05:37:33;8.94;94.80
76345;DHT22;65160;50.504;3.666;2023-02-04T05:39:59;8.93;94.92
76345;DHT22;65160;50.504;3.666;2023-02-04T05:42:24;8.93;94.87
76345;DHT22;65160;50.504;3.666;2023-02-04T05:44:50;8.94;94.85
76345;DHT22;65160;50.504;3.666;2023-02-04T05:47:15;8.93;94.82
76345;DHT22;65160;50.504;3.666;2023-02-04T05:49:41;8.90;94.88
76345;DHT22;65160;50.504;3.666;2023-02-04T05:52:06;8.90;94.89
76345;DHT22;65160;50.504;3.666;2023-02-04T05:54:32;8.90;94.88
76345;DHT22;65160;50.504;3.666;2023-02-04T05:56:57;8.92;94.93
76345;DHT22;65160;50.504;3.666;2023-02-04T05:59:23;8.84;95.03
76345;DHT22;65160;50.504;3.666;2023-02-04T06:01:49;8.89;95.07
76345;DHT22;65160;50.504;3.666;2023-02-04T06:04:14;8.86;95.13
76345;DHT22;65160;50.504;3.666;2023-02-04T06:06:41;8.86;95.14
76345;DHT22;65160;50.504;3.666;2023-02-04T06:09:06;8.87;95.14
76345;DHT22;65160;50.504;3.666;2023-02-04T06:11:32;8.83;95.19
76345;DHT22;65160;50.504;3.666;2023-02-04T06:13:58;8.82;95.18
76345;DHT22;65160;50.504;3.666;2023-02-04T06:16:23;8.87;95.16
76345;DHT22;65160;50.504;3.666;2023-02-04T06:18:49;8.84;95.24
76345;DHT22;65160;50.504;3.666;2023-02-04T06:21:14;8.90;95.08
76345;DHT22;65160;50.504;3.666;2023-02-04T06:23:40;8.87;95.08
76345;DHT22;65160;50.504;3.666;2023-02-04T06:26:05;8.90;95.07
76345;DHT22;65160;50.504;3.666;2023-02-04T06:28:31;8.93;95.00
76345;DHT22;65160;50.504;3.666;2023-02-04T06:30:56;8.89;94.90
76345;DHT22;65160;50.504;3.666;2023-02-04T06:33:22;8.94;94.77
76345;DHT22;65160;50.504;3.666;2023-02-04T06:35:48;8.90;94.71
76345;DHT22;65160;50.504;3.666;2023-02-04T06:38:14;8.96;94.73
76345;DHT22;65160;50.504;3.666;2023-02-04T06:40:40;8.94;94.46
76345;DHT22;65160;50.504;3.666;2023-02-04T06:43:06;8.94;94.31
76345;DHT22;65160;50.504;3.666;2023-02-04T06:45:31;8.92;94.34
76345;DHT22;65160;50.504;3.666;2023-02-04T06:47:56;8.89;94.37
76345;DHT22;65160;50.504;3.666;2023-02-04T06:50:22;8.84;94.35
76345;DHT22;65160;50.504;3.666;2023-02-04T06:52:48;8.82;94.40
76345;DHT22;65160;50.504;3.666;2023-02-04T06:55:14;8.79;94.44
76345;DHT22;65160;50.504;3.666;2023-02-04T06:57:40;8.77;94.43
76345;DHT22;65160;50.504;3.666;2023-02-04T07:00:08;8.76;94.43
76345;DHT22;65160;50.504;3.666;2023-02-04T07:02:34;8.73;94.49
76345;DHT22;65160;50.504;3.666;2023-02-04T07:05:01;8.76;94.50
76345;DHT22;65160;50.504;3.666;2023-02-04T07:07:27;8.71;94.53
76345;DHT22;65160;50.504;3.666;2023-02-04T07:09:52;8.68;94.53
76345;DHT22;65160;50.504;3.666;2023-02-04T07:12:18;8.61;94.54
76345;DHT22;65160;50.504;3.666;2023-02-04T07:14:44;8.58;94.61
76345;DHT22;65160;50.504;3.666;2023-02-04T07:17:09;8.55;94.59
76345;DHT22;65160;50.504;3.666;2023-02-04T07:19:35;8.59;94.75
76345;DHT22;65160;50.504;3.666;2023-02-04T07:22:02;8.64;94.58
76345;DHT22;65160;50.504;3.666;2023-02-04T07:24:27;8.61;94.61
76345;DHT22;65160;50.504;3.666;2023-02-04T07:26:53;8.66;94.54
76345;DHT22;65160;50.504;3.666;2023-02-04T07:29:18;8.61;94.58
76345;DHT22;65160;50.504;3.666;2023-02-04T07:31:44;8.58;94.59
76345;DHT22;65160;50.504;3.666;2023-02-04T07:34:13;8.58;94.67
76345;DHT22;65160;50.504;3.666;2023-02-04T07:36:39;8.64;94.69
76345;DHT22;65160;50.504;3.666;2023-02-04T07:39:05;8.62;94.67
76345;DHT22;65160;50.504;3.666;2023-02-04T07:41:31;8.64;94.73
76345;DHT22;65160;50.504;3.666;2023-02-04T07:43:56;8.64;94.71
76345;DHT22;65160;50.504;3.666;2023-02-04T07:46:22;8.61;94.74
76345;DHT22;65160;50.504;3.666;2023-02-04T07:48:47;8.54;94.69
76345;DHT22;65160;50.504;3.666;2023-02-04T07:51:13;8.55;94.66
76345;DHT22;65160;50.504;3.666;2023-02-04T07:53:38;8.47;94.60
76345;DHT22;65160;50.504;3.666;2023-02-04T07:56:04;8.44;94.54
76345;DHT22;65160;50.504;3.666;2023-02-04T07:58:29;8.35;94.49
76345;DHT22;65160;50.504;3.666;2023-02-04T08:00:55;8.26;94.51
76345;DHT22;65160;50.504;3.666;2023-02-04T08:03:20;8.26;94.61
76345;DHT22;65160;50.504;3.666;2023-02-04T08:05:46;8.24;94.67
76345;DHT22;65160;50.504;3.666;2023-02-04T08:08:11;8.30;94.77
76345;DHT22;65160;50.504;3.666;2023-02-04T08:10:37;8.28;94.81
76345;DHT22;65160;50.504;3.666;2023-02-04T08:13:02;8.26;94.81
76345;DHT22;65160;50.504;3.666;2023-02-04T08:15:28;8.21;94.83
76345;DHT22;65160;50.504;3.666;2023-02-04T08:17:53;8.20;94.92
76345;DHT22;65160;50.504;3.666;2023-02-04T08:20:18;8.23;94.99
76345;DHT22;65160;50.504;3.666;2023-02-04T08:22:44;8.26;95.07
76345;DHT22;65160;50.504;3.666;2023-02-04T08:25:11;8.27;95.05
76345;DHT22;65160;50.504;3.666;2023-02-04T08:27:37;8.27;95.03
76345;DHT22;65160;50.504;3.666;2023-02-04T08:30:03;8.27;95.05
76345;DHT22;65160;50.504;3.666;2023-02-04T08:32:28;8.34;95.01
76345;DHT22;65160;50.504;3.666;2023-02-04T08:34:56;8.38;94.95
76345;DHT22;65160;50.504;3.666;2023-02-04T08:37:21;8.45;94.88
76345;DHT22;65160;50.504;3.666;2023-02-04T08:39:47;8.65;94.65
76345;DHT22;65160;50.504;3.666;2023-02-04T08:42:14;8.69;94.49
76345;DHT22;65160;50.504;3.666;2023-02-04T08:44:40;8.84;94.14
76345;DHT22;65160;50.504;3.666;2023-02-04T08:47:05;8.97;93.33
76345;DHT22;65160;50.504;3.666;2023-02-04T08:49:31;9.00;92.96
76345;DHT22;65160;50.504;3.666;2023-02-04T08:51:56;9.07;92.86
76345;DHT22;65160;50.504;3.666;2023-02-04T08:54:22;9.10;92.58
76345;DHT22;65160;50.504;3.666;2023-02-04T08:56:47;9.21;92.37
76345;DHT22;65160;50.504;3.666;2023-02-04T08:59:13;9.23;92.30
76345;DHT22;65160;50.504;3.666;2023-02-04T09:01:38;9.24;91.81
76345;DHT22;65160;50.504;3.666;2023-02-04T09:04:04;9.30;91.69
76345;DHT22;65160;50.504;3.666;2023-02-04T09:06:29;9.37;91.60
76345;DHT22;65160;50.504;3.666;2023-02-04T09:08:55;9.40;91.51
76345;DHT22;65160;50.504;3.666;2023-02-04T09:11:20;9.47;91.38
76345;DHT22;65160;50.504;3.666;2023-02-04T09:13:46;9.57;90.95
76345;DHT22;65160;50.504;3.666;2023-02-04T09:16:11;9.55;90.79
76345;DHT22;65160;50.504;3.666;2023-02-04T09:18:37;9.62;90.69
76345;DHT22;65160;50.504;3.666;2023-02-04T09:21:02;9.63;90.15
76345;DHT22;65160;50.504;3.666;2023-02-04T09:23:28;9.68;90.20
76345;DHT22;65160;50.504;3.666;2023-02-04T09:25:54;9.75;90.02
76345;DHT22;65160;50.504;3.666;2023-02-04T09:28:19;9.82;89.95
76345;DHT22;65160;50.504;3.666;2023-02-04T09:30:46;9.85;89.80
76345;DHT22;65160;50.504;3.666;2023-02-04T09:33:13;9.92;89.35
76345;DHT22;65160;50.504;3.666;2023-02-04T09:35:40;9.96;89.40
76345;DHT22;65160;50.504;3.666;2023-02-04T09:38:06;10.02;89.02
76345;DHT22;65160;50.504;3.666;2023-02-04T09:40:39;10.04;88.54
76345;DHT22;65160;50.504;3.666;2023-02-04T09:43:05;10.06;88.84
76345;DHT22;65160;50.504;3.666;2023-02-04T09:45:33;10.10;89.18
76345;DHT22;65160;50.504;3.666;2023-02-04T09:48:02;10.13;88.39
76345;DHT22;65160;50.504;3.666;2023-02-04T09:50:29;10.17;87.97
76345;DHT22;65160;50.504;3.666;2023-02-04T09:52:57;10.20;88.10
76345;DHT22;65160;50.504;3.666;2023-02-04T09:55:31;10.20;87.38
76345;DHT22;65160;50.504;3.666;2023-02-04T09:57:56;10.30;87.17
76345;DHT22;65160;50.504;3.666;2023-02-04T10:00:28;10.29;86.35
76345;DHT22;65160;50.504;3.666;2023-02-04T10:02:58;10.29;86.35
76345;DHT22;65160;50.504;3.666;2023-02-04T10:05:29;10.30;86.81
76345;DHT22;65160;50.504;3.666;2023-02-04T10:07:55;10.36;86.94
76345;DHT22;65160;50.504;3.666;2023-02-04T10:10:23;10.36;86.72
76345;DHT22;65160;50.504;3.666;2023-02-04T10:12:56;10.29;86.20
76345;DHT22;65160;50.504;3.666;2023-02-04T10:15:22;10.38;86.52
76345;DHT22;65160;50.504;3.666;2023-02-04T10:18:08;10.47;86.10
76345;DHT22;65160;50.504;3.666;2023-02-04T10:20:33;10.54;85.80
76345;DHT22;65160;50.504;3.666;2023-02-04T10:22:59;10.57;85.59
76345;DHT22;65160;50.504;3.666;2023-02-04T10:25:25;10.55;85.73
76345;DHT22;65160;50.504;3.666;2023-02-04T10:27:51;10.57;85.08
76345;DHT22;65160;50.504;3.666;2023-02-04T10:30:19;10.58;85.14
76345;DHT22;65160;50.504;3.666;2023-02-04T10:32:46;10.52;84.78
76345;DHT22;65160;50.504;3.666;2023-02-04T10:35:14;10.50;84.83
76345;DHT22;65160;50.504;3.666;2023-02-04T10:37:40;10.50;84.55
76345;DHT22;65160;50.504;3.666;2023-02-04T10:40:25;10.48;84.36
76345;DHT22;65160;50.504;3.666;2023-02-04T10:42:51;10.40;84.76
76345;DHT22;65160;50.504;3.666;2023-02-04T10:45:28;10.44;85.40
76345;DHT22;65160;50.504;3.666;2023-02-04T10:47:55;10.55;85.57
76345;DHT22;65160;50.504;3.666;2023-02-04T10:50:24;10.59;84.75
76345;DHT22;65160;50.504;3.666;2023-02-04T10:52:54;10.67;84.72
76345;DHT22;65160;50.504;3.666;2023-02-04T10:55:40;10.64;84.45
76345;DHT22;65160;50.504;3.666;2023-02-04T10:58:09;10.65;84.42
76345;DHT22;65160;50.504;3.666;2023-02-04T11:00:36;10.68;84.65
76345;DHT22;65160;50.504;3.666;2023-02-04T11:03:10;10.78;84.95
76345;DHT22;65160;50.504;3.666;2023-02-04T11:05:36;10.85;83.78
76345;DHT22;65160;50.504;3.666;2023-02-04T11:10:40;10.93;84.06
76345;DHT22;65160;50.504;3.666;2023-02-04T11:13:06;10.99;83.57
76345;DHT22;65160;50.504;3.666;2023-02-04T11:15:48;10.96;82.71
76345;DHT22;65160;50.504;3.666;2023-02-04T11:20:50;11.10;83.30
76345;DHT22;65160;50.504;3.666;2023-02-04T11:23:29;11.17;81.94
76345;DHT22;65160;50.504;3.666;2023-02-04T11:26:08;11.23;82.62
76345;DHT22;65160;50.504;3.666;2023-02-04T11:33:50;11.15;81.50
76345;DHT22;65160;50.504;3.666;2023-02-04T11:36:26;11.05;81.35
76345;DHT22;65160;50.504;3.666;2023-02-04T11:38:51;11.05;82.23
76345;DHT22;65160;50.504;3.666;2023-02-04T11:41:28;11.05;81.82
76345;DHT22;65160;50.504;3.666;2023-02-04T11:43:55;11.17;81.79
76345;DHT22;65160;50.504;3.666;2023-02-04T11:46:22;11.19;82.30
76345;DHT22;65160;50.504;3.666;2023-02-04T11:48:55;11.22;82.10
76345;DHT22;65160;50.504;3.666;2023-02-04T11:51:30;11.22;81.59
76345;DHT22;65160;50.504;3.666;2023-02-04T11:53:56;11.23;80.98
76345;DHT22;65160;50.504;3.666;2023-02-04T11:56:22;11.27;80.47
76345;DHT22;65160;50.504;3.666;2023-02-04T11:58:49;11.16;80.60
76345;DHT22;65160;50.504;3.666;2023-02-04T12:01:18;11.15;80.26
76345;DHT22;65160;50.504;3.666;2023-02-04T12:03:47;11.15;80.26
76345;DHT22;65160;50.504;3.666;2023-02-04T12:06:21;11.19;80.47
76345;DHT22;65160;50.504;3.666;2023-02-04T12:08:47;11.16;80.56
76345;DHT22;65160;50.504;3.666;2023-02-04T12:11:29;11.26;80.97
76345;DHT22;65160;50.504;3.666;2023-02-04T12:13:56;11.30;80.15
76345;DHT22;65160;50.504;3.666;2023-02-04T12:16:23;11.35;79.33
76345;DHT22;65160;50.504;3.666;2023-02-04T12:18:48;11.50;80.01
76345;DHT22;65160;50.504;3.666;2023-02-04T12:21:15;11.51;79.62
76345;DHT22;65160;50.504;3.666;2023-02-04T12:23:41;11.58;79.77
76345;DHT22;65160;50.504;3.666;2023-02-04T12:26:07;11.64;79.42
76345;DHT22;65160;50.504;3.666;2023-02-04T12:28:33;11.81;78.76
76345;DHT22;65160;50.504;3.666;2023-02-04T12:30:58;11.89;78.66
76345;DHT22;65160;50.504;3.666;2023-02-04T12:33:24;11.93;78.82
76345;DHT22;65160;50.504;3.666;2023-02-04T12:35:50;12.05;78.01
76345;DHT22;65160;50.504;3.666;2023-02-04T12:38:16;12.16;77.50
76345;DHT22;65160;50.504;3.666;2023-02-04T12:40:41;12.32;77.53
76345;DHT22;65160;50.504;3.666;2023-02-04T12:43:07;12.41;76.49
76345;DHT22;65160;50.504;3.666;2023-02-04T12:45:32;12.40;74.66
76345;DHT22;65160;50.504;3.666;2023-02-04T12:47:58;12.47;75.92
76345;DHT22;65160;50.504;3.666;2023-02-04T12:50:24;12.58;75.13
76345;DHT22;65160;50.504;3.666;2023-02-04T12:52:56;12.69;74.78
76345;DHT22;65160;50.504;3.666;2023-02-04T12:55:23;12.92;74.67
76345;DHT22;65160;50.504;3.666;2023-02-04T12:57:50;12.77;74.19
76345;DHT22;65160;50.504;3.666;2023-02-04T13:00:17;12.63;74.53
76345;DHT22;65160;50.504;3.666;2023-02-04T13:02:43;12.36;75.13
76345;DHT22;65160;50.504;3.666;2023-02-04T13:05:09;12.38;75.85
76345;DHT22;65160;50.504;3.666;2023-02-04T13:07:35;12.44;76.05
76345;DHT22;65160;50.504;3.666;2023-02-04T13:10:01;12.36;75.97
76345;DHT22;65160;50.504;3.666;2023-02-04T13:12:26;12.25;76.72
76345;DHT22;65160;50.504;3.666;2023-02-04T13:14:52;12.05;76.95
76345;DHT22;65160;50.504;3.666;2023-02-04T13:17:18;11.95;77.70
76345;DHT22;65160;50.504;3.666;2023-02-04T13:19:43;11.81;77.73
76345;DHT22;65160;50.504;3.666;2023-02-04T13:22:08;11.78;77.96
76345;DHT22;65160;50.504;3.666;2023-02-04T13:24:34;11.71;78.12
76345;DHT22;65160;50.504;3.666;2023-02-04T13:26:59;11.61;78.05
76345;DHT22;65160;50.504;3.666;2023-02-04T13:29:25;11.60;77.98
76345;DHT22;65160;50.504;3.666;2023-02-04T13:31:51;11.53;78.27
76345;DHT22;65160;50.504;3.666;2023-02-04T13:34:16;11.51;78.39
76345;DHT22;65160;50.504;3.666;2023-02-04T13:36:42;11.41;78.38
76345;DHT22;65160;50.504;3.666;2023-02-04T13:39:08;11.48;78.43
76345;DHT22;65160;50.504;3.666;2023-02-04T13:41:34;11.43;77.65
76345;DHT22;65160;50.504;3.666;2023-02-04T13:44:00;11.30;77.98
76345;DHT22;65160;50.504;3.666;2023-02-04T13:46:26;11.24;78.75
76345;DHT22;65160;50.504;3.666;2023-02-04T13:48:52;11.30;78.43
76345;DHT22;65160;50.504;3.666;2023-02-04T13:51:18;11.33;78.38
76345;DHT22;65160;50.504;3.666;2023-02-04T13:53:43;11.30;78.31
76345;DHT22;65160;50.504;3.666;2023-02-04T13:56:09;11.30;78.57
76345;DHT22;65160;50.504;3.666;2023-02-04T13:58:34;11.34;78.43
76345;DHT22;65160;50.504;3.666;2023-02-04T14:01:00;11.30;78.86
76345;DHT22;65160;50.504;3.666;2023-02-04T14:03:26;11.26;78.71
76345;DHT22;65160;50.504;3.666;2023-02-04T14:05:53;11.24;79.20
76345;DHT22;65160;50.504;3.666;2023-02-04T14:08:19;11.24;78.77
76345;DHT22;65160;50.504;3.666;2023-02-04T14:10:45;11.20;79.26
76345;DHT22;65160;50.504;3.666;2023-02-04T14:13:11;11.19;79.43
76345;DHT22;65160;50.504;3.666;2023-02-04T14:15:37;11.19;79.82
76345;DHT22;65160;50.504;3.666;2023-02-04T14:18:05;11.19;79.82
76345;DHT22;65160;50.504;3.666;2023-02-04T14:20:31;11.19;79.01
76345;DHT22;65160;50.504;3.666;2023-02-04T14:22:56;11.13;78.99
76345;DHT22;65160;50.504;3.666;2023-02-04T14:25:22;11.17;79.06
76345;DHT22;65160;50.504;3.666;2023-02-04T14:27:47;11.13;79.42
76345;DHT22;65160;50.504;3.666;2023-02-04T14:30:17;11.09;79.21
76345;DHT22;65160;50.504;3.666;2023-02-04T14:32:43;11.07;79.80
76345;DHT22;65160;50.504;3.666;2023-02-04T14:35:08;11.09;79.62
76345;DHT22;65160;50.504;3.666;2023-02-04T14:37:34;11.03;79.88
76345;DHT22;65160;50.504;3.666;2023-02-04T14:39:59;11.02;80.27
76345;DHT22;65160;50.504;3.666;2023-02-04T14:42:25;11.07;80.22
76345;DHT22;65160;50.504;3.666;2023-02-04T14:44:50;11.03;79.98
76345;DHT22;65160;50.504;3.666;2023-02-04T14:47:16;11.07;79.89
76345;DHT22;65160;50.504;3.666;2023-02-04T14:49:41;11.10;80.31
76345;DHT22;65160;50.504;3.666;2023-02-04T14:52:07;11.07;79.63
76345;DHT22;65160;50.504;3.666;2023-02-04T14:54:32;11.03;80.31
76345;DHT22;65160;50.504;3.666;2023-02-04T14:56:58;11.05;80.74
76345;DHT22;65160;50.504;3.666;2023-02-04T14:59:23;10.97;80.67
76345;DHT22;65160;50.504;3.666;2023-02-04T15:01:49;10.96;80.53
76345;DHT22;65160;50.504;3.666;2023-02-04T15:04:14;10.92;80.60
76345;DHT22;65160;50.504;3.666;2023-02-04T15:06:40;10.95;80.40
76345;DHT22;65160;50.504;3.666;2023-02-04T15:09:06;10.93;80.24
76345;DHT22;65160;50.504;3.666;2023-02-04T15:11:31;10.88;79.92
76345;DHT22;65160;50.504;3.666;2023-02-04T15:13:58;10.85;80.94
76345;DHT22;65160;50.504;3.666;2023-02-04T15:16:24;10.88;81.08
76345;DHT22;65160;50.504;3.666;2023-02-04T15:18:49;10.85;81.05
76345;DHT22;65160;50.504;3.666;2023-02-04T15:21:15;10.78;81.31
76345;DHT22;65160;50.504;3.666;2023-02-04T15:23:41;10.78;81.66
76345;DHT22;65160;50.504;3.666;2023-02-04T15:26:08;10.78;81.42
76345;DHT22;65160;50.504;3.666;2023-02-04T15:28:33;10.75;80.72
76345;DHT22;65160;50.504;3.666;2023-02-04T15:30:59;10.71;80.82
76345;DHT22;65160;50.504;3.666;2023-02-04T15:33:26;10.65;81.72
76345;DHT22;65160;50.504;3.666;2023-02-04T15:35:51;10.69;81.69
76345;DHT22;65160;50.504;3.666;2023-02-04T15:38:17;10.73;81.26
76345;DHT22;65160;50.504;3.666;2023-02-04T15:40:42;10.69;81.43
76345;DHT22;65160;50.504;3.666;2023-02-04T15:43:08;10.68;81.51
76345;DHT22;65160;50.504;3.666;2023-02-04T15:45:33;10.68;82.42